sensor_id;sensor_type;location;lat;lon;timestamp;pressure;altitude;pressure_sealevel;temperature;humidity
63343;BME280;49465;57.664;39.686;2024-01-27T00:02:14;100475.78;;;1.09;50.82
63343;BME280;49465;57.664;39.686;2024-01-27T00:04:46;100473.38;;;1.02;50.76
63343;BME280;49465;57.664;39.686;2024-01-27T00:07:15;100466.88;;;0.84;50.65
63343;BME280;49465;57.664;39.686;2024-01-27T00:09:48;100472.91;;;0.84;50.75
63343;BME280;49465;57.664;39.686;2024-01-27T00:12:23;100482.06;;;0.99;50.74
63343;BME280;49465;57.664;39.686;2024-01-27T00:14:57;100478.97;;;0.83;50.50
63343;BME280;49465;57.664;39.686;2024-01-27T00:17:32;100490.44;;;1.10;50.89
63343;BME280;49465;57.664;39.686;2024-01-27T00:20:07;100491.03;;;0.83;50.50
63343;BME280;49465;57.664;39.686;2024-01-27T00:22:39;100485.50;;;0.98;50.68
63343;BME280;49465;57.664;39.686;2024-01-27T00:25:16;100487.22;;;0.99;50.71
63343;BME280;49465;57.664;39.686;2024-01-27T00:27:53;100490.47;;;1.07;50.95
63343;BME280;49465;57.664;39.686;2024-01-27T00:30:25;100488.78;;;1.06;50.79
63343;BME280;49465;57.664;39.686;2024-01-27T00:32:57;100484.16;;;0.80;50.35
63343;BME280;49465;57.664;39.686;2024-01-27T00:35:34;100487.28;;;0.96;50.74
63343;BME280;49465;57.664;39.686;2024-01-27T00:38:09;100492.72;;;0.82;50.56
63343;BME280;49465;57.664;39.686;2024-01-27T00:40:45;100481.03;;;1.06;50.54
63343;BME280;49465;57.664;39.686;2024-01-27T00:43:17;100483.19;;;0.86;50.45
63343;BME280;49465;57.664;39.686;2024-01-27T00:45:48;100487.25;;;0.97;50.75
63343;BME280;49465;57.664;39.686;2024-01-27T00:48:22;100485.31;;;1.07;50.67
63343;BME280;49465;57.664;39.686;2024-01-27T00:50:57;100483.50;;;1.11;50.89
63343;BME280;49465;57.664;39.686;2024-01-27T00:53:30;100481.25;;;0.97;50.59
63343;BME280;49465;57.664;39.686;2024-01-27T00:56:03;100479.50;;;0.97;50.68
63343;BME280;49465;57.664;39.686;2024-01-27T00:58:43;100477.56;;;1.07;50.64
63343;BME280;49465;57.664;39.686;2024-01-27T01:01:23;100474.63;;;1.24;50.62
63343;BME280;49465;57.664;39.686;2024-01-27T01:04:01;100485.56;;;0.96;50.60
63343;BME280;49465;57.664;39.686;2024-01-27T01:06:38;100489.81;;;0.97;50.35
63343;BME280;49465;57.664;39.686;2024-01-27T01:09:16;100486.38;;;0.98;50.80
63343;BME280;49465;57.664;39.686;2024-01-27T01:11:52;100478.97;;;0.82;50.62
63343;BME280;49465;57.664;39.686;2024-01-27T01:14:32;100481.25;;;0.97;50.67
63343;BME280;49465;57.664;39.686;2024-01-27T01:17:07;100486.44;;;0.95;50.82
63343;BME280;49465;57.664;39.686;2024-01-27T01:19:45;100492.19;;;1.08;50.46
63343;BME280;49465;57.664;39.686;2024-01-27T01:22:17;100493.34;;;0.95;50.71
63343;BME280;49465;57.664;39.686;2024-01-27T01:24:48;100496.59;;;1.03;50.54
63343;BME280;49465;57.664;39.686;2024-01-27T01:27:15;100487.69;;;0.77;50.65
63343;BME280;49465;57.664;39.686;2024-01-27T01:29:52;100493.69;;;0.76;50.67
63343;BME280;49465;57.664;39.686;2024-01-27T01:32:19;100488.59;;;0.75;50.60
63343;BME280;49465;57.664;39.686;2024-01-27T01:34:51;100494.28;;;0.91;50.65
63343;BME280;49465;57.664;39.686;2024-01-27T01:37:26;100491.19;;;0.73;50.51
63343;BME280;49465;57.664;39.686;2024-01-27T01:40:09;100502.91;;;0.90;50.69
63343;BME280;49465;57.664;39.686;2024-01-27T01:42:49;100502.94;;;0.88;50.65
63343;BME280;49465;57.664;39.686;2024-01-27T01:45:18;100506.38;;;0.89;50.94
63343;BME280;49465;57.664;39.686;2024-01-27T01:47:59;100507.69;;;1.08;50.89
63343;BME280;49465;57.664;39.686;2024-01-27T01:50:39;100504.75;;;0.85;50.88
63343;BME280;49465;57.664;39.686;2024-01-27T01:53:14;100507.88;;;0.99;50.86
63343;BME280;49465;57.664;39.686;2024-01-27T01:55:48;100509.03;;;0.84;50.93
63343;BME280;49465;57.664;39.686;2024-01-27T01:58:18;100511.06;;;0.70;50.82
63343;BME280;49465;57.664;39.686;2024-01-27T02:01:02;100509.91;;;0.85;50.96
63343;BME280;49465;57.664;39.686;2024-01-27T02:03:36;100517.59;;;0.86;50.83
63343;BME280;49465;57.664;39.686;2024-01-27T02:06:05;100520.53;;;0.69;50.67
63343;BME280;49465;57.664;39.686;2024-01-27T02:08:40;100516.84;;;0.83;50.93
63343;BME280;49465;57.664;39.686;2024-01-27T02:11:17;100521.06;;;0.85;50.75
63343;BME280;49465;57.664;39.686;2024-01-27T02:13:52;100520.56;;;0.68;50.69
63343;BME280;49465;57.664;39.686;2024-01-27T02:16:30;100529.78;;;0.79;50.67
63343;BME280;49465;57.664;39.686;2024-01-27T02:19:01;100521.94;;;0.84;51.10
63343;BME280;49465;57.664;39.686;2024-01-27T02:21:33;100531.53;;;0.79;50.82
63343;BME280;49465;57.664;39.686;2024-01-27T02:24:06;100530.56;;;0.85;50.95
63343;BME280;49465;57.664;39.686;2024-01-27T02:26:41;100520.56;;;1.85;48.97
63343;BME280;49465;57.664;39.686;2024-01-27T02:29:13;100525.09;;;1.00;50.44
63343;BME280;49465;57.664;39.686;2024-01-27T02:31:44;100526.28;;;0.82;50.83
63343;BME280;49465;57.664;39.686;2024-01-27T02:34:16;100529.22;;;0.65;50.51
63343;BME280;49465;57.664;39.686;2024-01-27T02:36:55;100529.25;;;1.06;50.67
63343;BME280;49465;57.664;39.686;2024-01-27T02:39:30;100526.06;;;0.94;50.82
63343;BME280;49465;57.664;39.686;2024-01-27T02:42:02;100518.59;;;0.81;50.61
63343;BME280;49465;57.664;39.686;2024-01-27T02:44:31;100529.78;;;0.79;50.56
63343;BME280;49465;57.664;39.686;2024-01-27T02:47:05;100530.69;;;0.78;50.79
63343;BME280;49465;57.664;39.686;2024-01-27T02:49:37;100529.97;;;1.87;48.68
63343;BME280;49465;57.664;39.686;2024-01-27T02:52:11;100533.50;;;1.08;49.85
63343;BME280;49465;57.664;39.686;2024-01-27T02:54:42;100531.69;;;0.71;50.09
63343;BME280;49465;57.664;39.686;2024-01-27T02:57:17;100536.66;;;0.81;50.57
63343;BME280;49465;57.664;39.686;2024-01-27T02:59:51;100531.50;;;0.81;50.33
63343;BME280;49465;57.664;39.686;2024-01-27T03:02:25;100536.72;;;0.77;50.61
63343;BME280;49465;57.664;39.686;2024-01-27T03:04:54;100536.84;;;1.88;48.65
63343;BME280;49465;57.664;39.686;2024-01-27T03:07:29;100536.34;;;0.96;50.00
63343;BME280;49465;57.664;39.686;2024-01-27T03:10:09;100550.97;;;0.95;50.29
63343;BME280;49465;57.664;39.686;2024-01-27T03:12:40;100544.47;;;0.77;50.33
63343;BME280;49465;57.664;39.686;2024-01-27T03:15:12;100554.78;;;0.77;50.42
63343;BME280;49465;57.664;39.686;2024-01-27T03:17:50;100545.16;;;0.86;50.52
63343;BME280;49465;57.664;39.686;2024-01-27T03:20:22;100548.81;;;0.75;50.31
63343;BME280;49465;57.664;39.686;2024-01-27T03:22:48;100546.53;;;0.60;50.26
63343;BME280;49465;57.664;39.686;2024-01-27T03:25:23;100548.84;;;0.72;50.38
63343;BME280;49465;57.664;39.686;2024-01-27T03:27:59;100553.72;;;0.88;50.31
63343;BME280;49465;57.664;39.686;2024-01-27T03:30:35;100550.34;;;0.84;50.54
63343;BME280;49465;57.664;39.686;2024-01-27T03:33:09;100551.38;;;0.75;50.61
63343;BME280;49465;57.664;39.686;2024-01-27T03:35:56;100553.41;;;0.59;50.10
63343;BME280;49465;57.664;39.686;2024-01-27T03:38:28;100554.75;;;0.79;50.47
63343;BME280;49465;57.664;39.686;2024-01-27T03:40:57;100566.03;;;0.75;50.51
63343;BME280;49465;57.664;39.686;2024-01-27T03:43:32;100554.34;;;0.57;50.13
63343;BME280;49465;57.664;39.686;2024-01-27T03:46:07;100571.25;;;0.72;50.55
63343;BME280;49465;57.664;39.686;2024-01-27T03:48:39;100566.31;;;1.81;48.89
63343;BME280;49465;57.664;39.686;2024-01-27T03:51:16;100575.19;;;0.90;49.90
63343;BME280;49465;57.664;39.686;2024-01-27T03:53:47;100581.53;;;0.75;50.27
63343;BME280;49465;57.664;39.686;2024-01-27T03:56:16;100581.56;;;0.72;50.24
63343;BME280;49465;57.664;39.686;2024-01-27T03:58:49;100586.75;;;0.70;50.61
63343;BME280;49465;57.664;39.686;2024-01-27T04:01:28;100585.38;;;0.96;50.55
63343;BME280;49465;57.664;39.686;2024-01-27T04:03:59;100585.88;;;0.73;50.79
63343;BME280;49465;57.664;39.686;2024-01-27T04:06:38;100587.88;;;0.57;50.20
63343;BME280;49465;57.664;39.686;2024-01-27T04:09:11;100592.72;;;0.74;50.61
63343;BME280;49465;57.664;39.686;2024-01-27T04:11:43;100597.94;;;0.71;50.66
63343;BME280;49465;57.664;39.686;2024-01-27T04:14:15;100599.66;;;0.70;50.52
63343;BME280;49465;57.664;39.686;2024-01-27T04:16:47;100605.72;;;0.69;50.63
63343;BME280;49465;57.664;39.686;2024-01-27T04:19:24;100603.81;;;0.79;50.71
63343;BME280;49465;57.664;39.686;2024-01-27T04:21:56;100606.59;;;0.68;50.66
63343;BME280;49465;57.664;39.686;2024-01-27T04:24:31;100620.34;;;0.69;50.66
63343;BME280;49465;57.664;39.686;2024-01-27T04:27:03;100609.16;;;0.68;50.64
63343;BME280;49465;57.664;39.686;2024-01-27T04:29:36;100615.50;;;0.52;50.64
63343;BME280;49465;57.664;39.686;2024-01-27T04:32:13;100623.81;;;0.68;50.67
63343;BME280;49465;57.664;39.686;2024-01-27T04:34:40;100623.28;;;0.49;50.70
63343;BME280;49465;57.664;39.686;2024-01-27T04:37:23;100611.84;;;0.62;50.93
63343;BME280;49465;57.664;39.686;2024-01-27T04:39:57;100620.41;;;0.64;50.62
63343;BME280;49465;57.664;39.686;2024-01-27T04:42:38;100626.09;;;1.67;48.93
63343;BME280;49465;57.664;39.686;2024-01-27T04:45:07;100621.22;;;0.68;50.16
63343;BME280;49465;57.664;39.686;2024-01-27T04:47:39;100628.09;;;0.69;50.58
63343;BME280;49465;57.664;39.686;2024-01-27T04:50:11;100625.84;;;0.49;50.60
63343;BME280;49465;57.664;39.686;2024-01-27T04:52:49;100635.75;;;0.73;50.90
63343;BME280;49465;57.664;39.686;2024-01-27T04:55:26;100632.88;;;0.89;50.71
63343;BME280;49465;57.664;39.686;2024-01-27T04:57:53;100631.00;;;0.49;50.73
63343;BME280;49465;57.664;39.686;2024-01-27T05:00:23;100629.09;;;0.62;50.86
63343;BME280;49465;57.664;39.686;2024-01-27T05:02:55;100642.53;;;1.65;48.90
63343;BME280;49465;57.664;39.686;2024-01-27T05:05:30;100637.38;;;0.79;50.49
63343;BME280;49465;57.664;39.686;2024-01-27T05:07:59;100631.53;;;0.68;50.52
63343;BME280;49465;57.664;39.686;2024-01-27T05:10:29;100642.00;;;0.62;50.75
63343;BME280;49465;57.664;39.686;2024-01-27T05:13:00;100642.03;;;0.58;50.81
63343;BME280;49465;57.664;39.686;2024-01-27T05:15:35;100638.22;;;0.79;50.79
63343;BME280;49465;57.664;39.686;2024-01-27T05:18:05;100642.03;;;0.58;50.88
63343;BME280;49465;57.664;39.686;2024-01-27T05:20:39;100642.03;;;0.58;50.85
63343;BME280;49465;57.664;39.686;2024-01-27T05:23:08;100647.44;;;0.43;50.51
63343;BME280;49465;57.664;39.686;2024-01-27T05:25:42;100651.50;;;0.58;50.62
63343;BME280;49465;57.664;39.686;2024-01-27T05:28:14;100657.97;;;1.68;48.67
63343;BME280;49465;57.664;39.686;2024-01-27T05:30:43;100663.22;;;0.77;50.15
63343;BME280;49465;57.664;39.686;2024-01-27T05:33:15;100666.88;;;0.64;50.55
63343;BME280;49465;57.664;39.686;2024-01-27T05:35:42;100656.09;;;0.42;50.07
63343;BME280;49465;57.664;39.686;2024-01-27T05:38:09;100656.09;;;0.41;50.62
63343;BME280;49465;57.664;39.686;2024-01-27T05:40:40;100662.78;;;0.52;50.92
63343;BME280;49465;57.664;39.686;2024-01-27T05:43:09;100657.88;;;0.37;50.58
63343;BME280;49465;57.664;39.686;2024-01-27T05:45:39;100663.63;;;0.53;50.47
63343;BME280;49465;57.664;39.686;2024-01-27T05:48:11;100662.78;;;0.52;50.74
63343;BME280;49465;57.664;39.686;2024-01-27T05:50:44;100674.72;;;0.58;50.35
63343;BME280;49465;57.664;39.686;2024-01-27T05:53:22;100677.44;;;0.50;50.51
63343;BME280;49465;57.664;39.686;2024-01-27T05:55:56;100678.16;;;0.58;50.39
63343;BME280;49465;57.664;39.686;2024-01-27T05:58:28;100684.09;;;1.55;48.79
63343;BME280;49465;57.664;39.686;2024-01-27T06:01:05;100683.84;;;0.79;49.85
63343;BME280;49465;57.664;39.686;2024-01-27T06:03:34;100688.94;;;1.71;48.43
63343;BME280;49465;57.664;39.686;2024-01-27T06:06:11;100679.03;;;0.59;49.52
63343;BME280;49465;57.664;39.686;2024-01-27T06:08:40;100679.03;;;0.59;50.02
63343;BME280;49465;57.664;39.686;2024-01-27T06:11:09;100682.78;;;0.39;50.24
63343;BME280;49465;57.664;39.686;2024-01-27T06:13:39;100678.28;;;0.51;50.47
63343;BME280;49465;57.664;39.686;2024-01-27T06:16:12;100687.53;;;0.63;50.38
63343;BME280;49465;57.664;39.686;2024-01-27T06:18:44;100694.66;;;0.50;50.38
63343;BME280;49465;57.664;39.686;2024-01-27T06:21:14;100699.13;;;0.38;50.20
63343;BME280;49465;57.664;39.686;2024-01-27T06:23:43;100708.41;;;0.50;50.16
63343;BME280;49465;57.664;39.686;2024-01-27T06:26:10;100701.81;;;0.32;50.30
63343;BME280;49465;57.664;39.686;2024-01-27T06:28:42;100700.06;;;0.34;50.40
63343;BME280;49465;57.664;39.686;2024-01-27T06:31:11;100710.13;;;0.51;50.25
63343;BME280;49465;57.664;39.686;2024-01-27T06:33:38;100705.22;;;0.34;50.03
63343;BME280;49465;57.664;39.686;2024-01-27T06:36:07;100714.41;;;0.51;50.34
63343;BME280;49465;57.664;39.686;2024-01-27T06:38:37;100706.94;;;0.35;50.46
63343;BME280;49465;57.664;39.686;2024-01-27T06:41:12;100719.25;;;0.71;50.09
63343;BME280;49465;57.664;39.686;2024-01-27T06:43:38;100716.38;;;0.35;49.88
63343;BME280;49465;57.664;39.686;2024-01-27T06:46:07;100719.63;;;0.48;50.24
63343;BME280;49465;57.664;39.686;2024-01-27T06:48:36;100716.91;;;1.50;48.60
63343;BME280;49465;57.664;39.686;2024-01-27T06:51:04;100722.06;;;0.57;49.56
63343;BME280;49465;57.664;39.686;2024-01-27T06:53:34;100725.50;;;0.57;49.70
63343;BME280;49465;57.664;39.686;2024-01-27T06:56:04;100726.31;;;1.54;48.23
63343;BME280;49465;57.664;39.686;2024-01-27T06:58:31;100726.44;;;0.53;49.12
63343;BME280;49465;57.664;39.686;2024-01-27T07:01:03;100722.31;;;0.42;49.41
63343;BME280;49465;57.664;39.686;2024-01-27T07:03:30;100732.69;;;0.37;49.71
63343;BME280;49465;57.664;39.686;2024-01-27T07:06:00;100734.47;;;0.33;49.96
63343;BME280;49465;57.664;39.686;2024-01-27T07:08:36;100739.38;;;0.49;49.71
63343;BME280;49465;57.664;39.686;2024-01-27T07:11:06;100741.03;;;0.53;49.88
63343;BME280;49465;57.664;39.686;2024-01-27T07:13:35;100742.28;;;0.27;49.43
63343;BME280;49465;57.664;39.686;2024-01-27T07:16:05;100742.25;;;0.30;49.55
63343;BME280;49465;57.664;39.686;2024-01-27T07:18:34;100747.13;;;0.49;49.42
63343;BME280;49465;57.664;39.686;2024-01-27T07:21:06;100747.94;;;0.51;49.24
63343;BME280;49465;57.664;39.686;2024-01-27T07:23:38;100750.72;;;0.38;49.64
63343;BME280;49465;57.664;39.686;2024-01-27T07:26:08;100769.44;;;1.52;47.84
63343;BME280;49465;57.664;39.686;2024-01-27T07:28:35;100762.53;;;0.55;48.81
63343;BME280;49465;57.664;39.686;2024-01-27T07:31:14;100773.66;;;1.56;47.36
63343;BME280;49465;57.664;39.686;2024-01-27T07:33:44;100773.38;;;0.75;48.37
63343;BME280;49465;57.664;39.686;2024-01-27T07:36:17;100785.59;;;0.64;48.54
63343;BME280;49465;57.664;39.686;2024-01-27T07:38:46;100785.66;;;0.61;48.84
63343;BME280;49465;57.664;39.686;2024-01-27T07:41:14;100777.09;;;0.57;48.82
63343;BME280;49465;57.664;39.686;2024-01-27T07:43:44;100789.41;;;0.42;48.78
63343;BME280;49465;57.664;39.686;2024-01-27T07:46:19;100785.06;;;0.44;48.81
63343;BME280;49465;57.664;39.686;2024-01-27T07:48:51;100796.25;;;0.43;48.62
63343;BME280;49465;57.664;39.686;2024-01-27T07:51:22;100797.97;;;0.44;48.66
63343;BME280;49465;57.664;39.686;2024-01-27T07:53:54;100800.56;;;0.42;48.93
63343;BME280;49465;57.664;39.686;2024-01-27T07:56:24;100800.53;;;0.45;48.72
63343;BME280;49465;57.664;39.686;2024-01-27T07:58:50;100811.44;;;1.64;47.62
63343;BME280;49465;57.664;39.686;2024-01-27T08:01:20;100806.84;;;0.80;48.23
63343;BME280;49465;57.664;39.686;2024-01-27T08:03:49;100804.47;;;0.69;48.58
63343;BME280;49465;57.664;39.686;2024-01-27T08:06:31;100806.56;;;0.98;48.17
63343;BME280;49465;57.664;39.686;2024-01-27T08:09:00;100803.63;;;0.67;48.36
63343;BME280;49465;57.664;39.686;2024-01-27T08:11:32;100814.19;;;0.50;48.53
63343;BME280;49465;57.664;39.686;2024-01-27T08:14:01;100809.06;;;0.49;48.34
63343;BME280;49465;57.664;39.686;2024-01-27T08:16:30;100813.16;;;0.62;48.01
63343;BME280;49465;57.664;39.686;2024-01-27T08:19:02;100813.06;;;0.68;47.80
63343;BME280;49465;57.664;39.686;2024-01-27T08:21:37;100815.63;;;0.70;48.28
63343;BME280;49465;57.664;39.686;2024-01-27T08:24:03;100820.13;;;0.57;48.19
63343;BME280;49465;57.664;39.686;2024-01-27T08:26:34;100815.84;;;0.56;48.29
63343;BME280;49465;57.664;39.686;2024-01-27T08:29:03;100815.63;;;0.71;48.51
63343;BME280;49465;57.664;39.686;2024-01-27T08:31:32;100822.50;;;0.71;48.29
63343;BME280;49465;57.664;39.686;2024-01-27T08:34:01;100819.88;;;0.72;48.11
63343;BME280;49465;57.664;39.686;2024-01-27T08:36:40;100828.44;;;1.77;47.13
63343;BME280;49465;57.664;39.686;2024-01-27T08:39:12;100835.88;;;0.96;47.82
63343;BME280;49465;57.664;39.686;2024-01-27T08:41:42;100831.72;;;0.87;48.19
63343;BME280;49465;57.664;39.686;2024-01-27T08:44:12;100834.28;;;1.85;47.12
63343;BME280;49465;57.664;39.686;2024-01-27T08:46:44;100830.47;;;2.03;45.63
63343;BME280;49465;57.664;39.686;2024-01-27T08:49:13;100830.56;;;1.05;47.54
63343;BME280;49465;57.664;39.686;2024-01-27T08:51:44;100836.78;;;0.92;47.83
63343;BME280;49465;57.664;39.686;2024-01-27T08:54:17;100836.78;;;0.92;48.18
63343;BME280;49465;57.664;39.686;2024-01-27T08:56:48;100833.38;;;0.90;47.95
63343;BME280;49465;57.664;39.686;2024-01-27T08:59:20;100833.38;;;0.90;47.85
63343;BME280;49465;57.664;39.686;2024-01-27T09:01:49;100841.97;;;0.92;48.02
63343;BME280;49465;57.664;39.686;2024-01-27T09:04:26;100842.84;;;0.91;47.89
63343;BME280;49465;57.664;39.686;2024-01-27T09:07:03;100841.72;;;1.07;47.98
63343;BME280;49465;57.664;39.686;2024-01-27T09:09:37;100841.69;;;1.10;47.74
63343;BME280;49465;57.664;39.686;2024-01-27T09:12:09;100847.88;;;1.00;48.12
63343;BME280;49465;57.664;39.686;2024-01-27T09:14:38;100835.84;;;0.97;47.95
63343;BME280;49465;57.664;39.686;2024-01-27T09:17:13;100833.09;;;1.08;47.90
63343;BME280;49465;57.664;39.686;2024-01-27T09:19:42;100835.78;;;1.02;48.12
63343;BME280;49465;57.664;39.686;2024-01-27T09:22:12;100846.97;;;1.01;47.83
63343;BME280;49465;57.664;39.686;2024-01-27T09:24:50;100847.81;;;1.03;47.84
63343;BME280;49465;57.664;39.686;2024-01-27T09:27:17;100848.88;;;0.90;47.71
63343;BME280;49465;57.664;39.686;2024-01-27T09:29:48;100859.88;;;1.04;47.72
63343;BME280;49465;57.664;39.686;2024-01-27T09:32:17;100861.56;;;1.05;47.65
63343;BME280;49465;57.664;39.686;2024-01-27T09:34:48;100857.28;;;1.04;47.60
63343;BME280;49465;57.664;39.686;2024-01-27T09:37:18;100869.28;;;1.07;47.87
63343;BME280;49465;57.664;39.686;2024-01-27T09:39:47;100863.28;;;1.06;47.72
63343;BME280;49465;57.664;39.686;2024-01-27T09:42:22;100863.19;;;1.11;47.55
63343;BME280;49465;57.664;39.686;2024-01-27T09:44:52;100869.41;;;0.99;47.61
63343;BME280;49465;57.664;39.686;2024-01-27T09:47:25;100867.41;;;1.16;47.36
63343;BME280;49465;57.664;39.686;2024-01-27T09:49:55;100882.06;;;1.16;47.55
63343;BME280;49465;57.664;39.686;2024-01-27T09:52:27;100874.31;;;1.16;47.75
63343;BME280;49465;57.664;39.686;2024-01-27T09:54:56;100880.34;;;1.15;47.52
63343;BME280;49465;57.664;39.686;2024-01-27T09:57:28;100883.72;;;1.18;47.85
63343;BME280;49465;57.664;39.686;2024-01-27T10:00:01;100886.22;;;1.23;47.45
63343;BME280;49465;57.664;39.686;2024-01-27T10:02:33;100892.06;;;1.34;47.43
63343;BME280;49465;57.664;39.686;2024-01-27T10:05:01;100888.09;;;1.13;47.93
63343;BME280;49465;57.664;39.686;2024-01-27T10:07:30;100884.75;;;1.10;47.49
63343;BME280;49465;57.664;39.686;2024-01-27T10:10:04;100883.59;;;1.26;47.43
63343;BME280;49465;57.664;39.686;2024-01-27T10:12:42;100893.63;;;2.36;45.83
63343;BME280;49465;57.664;39.686;2024-01-27T10:15:24;100887.75;;;1.85;46.99
63343;BME280;49465;57.664;39.686;2024-01-27T10:18:05;100896.06;;;2.44;46.32
63343;BME280;49465;57.664;39.686;2024-01-27T10:20:32;100898.06;;;1.38;47.37
63343;BME280;49465;57.664;39.686;2024-01-27T10:23:11;100906.16;;;1.68;47.87
63343;BME280;49465;57.664;39.686;2024-01-27T10:25:43;100899.91;;;1.31;47.26
63343;BME280;49465;57.664;39.686;2024-01-27T10:28:14;100916.06;;;1.43;47.48
63343;BME280;49465;57.664;39.686;2024-01-27T10:30:51;100912.59;;;1.45;47.07
63343;BME280;49465;57.664;39.686;2024-01-27T10:33:22;100913.41;;;1.47;47.31
63343;BME280;49465;57.664;39.686;2024-01-27T10:36:01;100907.88;;;1.69;47.15
63343;BME280;49465;57.664;39.686;2024-01-27T10:38:43;100912.94;;;1.75;47.28
63343;BME280;49465;57.664;39.686;2024-01-27T10:41:36;100916.88;;;1.94;46.62
63343;BME280;49465;57.664;39.686;2024-01-27T10:44:16;100917.53;;;1.59;47.12
63343;BME280;49465;57.664;39.686;2024-01-27T10:46:57;100918.38;;;1.60;47.13
63343;BME280;49465;57.664;39.686;2024-01-27T10:49:37;100921.69;;;1.66;47.86
63343;BME280;49465;57.664;39.686;2024-01-27T10:52:07;100928.63;;;2.54;46.16
63343;BME280;49465;57.664;39.686;2024-01-27T10:54:44;100928.47;;;1.73;47.31
63343;BME280;49465;57.664;39.686;2024-01-27T10:57:15;100929.66;;;1.54;47.49
63343;BME280;49465;57.664;39.686;2024-01-27T10:59:48;100927.09;;;1.52;47.62
63343;BME280;49465;57.664;39.686;2024-01-27T11:02:14;100935.78;;;1.48;47.74
63343;BME280;49465;57.664;39.686;2024-01-27T11:04:43;100935.81;;;1.47;47.77
63343;BME280;49465;57.664;39.686;2024-01-27T11:07:10;100936.69;;;1.47;47.51
63343;BME280;49465;57.664;39.686;2024-01-27T11:09:42;100945.88;;;1.64;48.17
63343;BME280;49465;57.664;39.686;2024-01-27T11:12:12;100946.03;;;1.53;47.42
63343;BME280;49465;57.664;39.686;2024-01-27T11:14:46;100952.78;;;1.63;47.56
63343;BME280;49465;57.664;39.686;2024-01-27T11:17:17;100949.19;;;1.70;47.46
63343;BME280;49465;57.664;39.686;2024-01-27T11:19:47;100945.16;;;1.55;47.46
63343;BME280;49465;57.664;39.686;2024-01-27T11:22:28;100947.28;;;1.82;47.49
63343;BME280;49465;57.664;39.686;2024-01-27T11:27:43;100950.91;;;1.71;47.30
63343;BME280;49465;57.664;39.686;2024-01-27T11:30:30;100957.13;;;2.09;47.07
63343;BME280;49465;57.664;39.686;2024-01-27T11:33:02;100963.03;;;1.68;47.57
63343;BME280;49465;57.664;39.686;2024-01-27T11:35:29;100958.06;;;1.57;47.88
63343;BME280;49465;57.664;39.686;2024-01-27T11:38:01;100960.41;;;1.71;47.43
63343;BME280;49465;57.664;39.686;2024-01-27T11:40:32;100962.19;;;1.67;47.29
63343;BME280;49465;57.664;39.686;2024-01-27T11:43:07;100969.94;;;1.67;47.34
63343;BME280;49465;57.664;39.686;2024-01-27T11:45:54;100972.50;;;1.69;47.86
63343;BME280;49465;57.664;39.686;2024-01-27T11:48:26;100965.38;;;1.82;47.68
63343;BME280;49465;57.664;39.686;2024-01-27T11:51:05;100975.59;;;2.78;46.50
63343;BME280;49465;57.664;39.686;2024-01-27T11:53:37;100973.81;;;1.93;47.19
63343;BME280;49465;57.664;39.686;2024-01-27T11:56:06;100987.81;;;1.80;47.93
63343;BME280;49465;57.664;39.686;2024-01-27T11:58:49;100979.66;;;2.03;47.57
63343;BME280;49465;57.664;39.686;2024-01-27T12:01:21;100985.09;;;1.87;47.32
63343;BME280;49465;57.664;39.686;2024-01-27T12:03:50;100981.03;;;1.74;47.51
63343;BME280;49465;57.664;39.686;2024-01-27T12:06:20;100985.31;;;1.75;47.45
63343;BME280;49465;57.664;39.686;2024-01-27T12:08:52;100984.69;;;1.61;47.76
63343;BME280;49465;57.664;39.686;2024-01-27T12:11:21;100980.44;;;1.56;47.32
63343;BME280;49465;57.664;39.686;2024-01-27T12:13:50;100986.50;;;1.55;47.43
63343;BME280;49465;57.664;39.686;2024-01-27T12:16:22;100984.41;;;1.79;47.62
63343;BME280;49465;57.664;39.686;2024-01-27T12:18:55;100978.44;;;1.74;47.44
63343;BME280;49465;57.664;39.686;2024-01-27T12:21:27;100982.78;;;1.72;47.39
63343;BME280;49465;57.664;39.686;2024-01-27T12:23:59;100994.88;;;1.70;47.98
63343;BME280;49465;57.664;39.686;2024-01-27T12:26:39;100992.81;;;1.90;47.50
63343;BME280;49465;57.664;39.686;2024-01-27T12:29:10;100987.38;;;1.54;47.18
63343;BME280;49465;57.664;39.686;2024-01-27T12:31:44;100998.19;;;1.78;47.51
63343;BME280;49465;57.664;39.686;2024-01-27T12:34:14;101000.94;;;1.69;47.60
63343;BME280;49465;57.664;39.686;2024-01-27T12:36:43;101010.41;;;1.68;47.59
63343;BME280;49465;57.664;39.686;2024-01-27T12:39:14;101007.00;;;1.66;47.38
63343;BME280;49465;57.664;39.686;2024-01-27T12:41:41;101010.66;;;1.53;47.37
63343;BME280;49465;57.664;39.686;2024-01-27T12:44:10;101015.91;;;1.48;46.91
63343;BME280;49465;57.664;39.686;2024-01-27T12:46:40;101019.09;;;1.64;47.64
63343;BME280;49465;57.664;39.686;2024-01-27T12:49:09;101017.41;;;1.63;47.57
63343;BME280;49465;57.664;39.686;2024-01-27T12:51:47;101029.50;;;1.61;47.42
63343;BME280;49465;57.664;39.686;2024-01-27T12:54:14;101027.09;;;1.49;47.51
63343;BME280;49465;57.664;39.686;2024-01-27T12:56:44;101028.84;;;1.47;47.46
63343;BME280;49465;57.664;39.686;2024-01-27T12:59:15;101037.25;;;1.61;47.33
63343;BME280;49465;57.664;39.686;2024-01-27T13:01:45;101040.72;;;1.60;47.57
63343;BME280;49465;57.664;39.686;2024-01-27T13:04:16;101038.13;;;1.58;47.65
63343;BME280;49465;57.664;39.686;2024-01-27T13:06:45;101044.13;;;1.61;47.92
63343;BME280;49465;57.664;39.686;2024-01-27T13:09:15;101048.47;;;1.60;47.62
63343;BME280;49465;57.664;39.686;2024-01-27T13:11:46;101046.78;;;1.57;47.63
63343;BME280;49465;57.664;39.686;2024-01-27T13:14:15;101056.28;;;1.55;47.70
63343;BME280;49465;57.664;39.686;2024-01-27T13:16:44;101047.88;;;1.41;47.38
63343;BME280;49465;57.664;39.686;2024-01-27T13:19:13;101042.75;;;1.38;47.46
63343;BME280;49465;57.664;39.686;2024-01-27T13:21:45;101048.56;;;1.52;47.46